createdAt,value
2022-11-12T00:05:08.230Z,18.4
2022-11-12T00:10:46.551Z,18.4
2022-11-12T00:16:23.326Z,18.3
2022-11-12T00:22:01.881Z,18.4
2022-11-12T00:27:39.440Z,18.3
2022-11-12T00:33:20.899Z,18.4
2022-11-12T00:39:01.238Z,18.3
2022-11-12T00:44:38.514Z,18.4
2022-11-12T00:49:45.843Z,18.4
2022-11-12T00:55:23.202Z,18.4
2022-11-12T01:00:46.012Z,18.3
2022-11-12T01:06:28.242Z,18.3
2022-11-12T01:12:06.804Z,18.3
2022-11-12T01:17:31.973Z,18.3
2022-11-12T01:22:55.428Z,18.3
2022-11-12T01:28:33.287Z,18.3
2022-11-12T01:34:10.767Z,18.3
2022-11-12T01:39:34.589Z,18.3
2022-11-12T01:44:57.732Z,18.3
2022-11-12T01:50:41.884Z,18.3
2022-11-12T01:56:19.361Z,18.3
2022-11-12T02:02:02.041Z,18.3
2022-11-12T02:07:39.523Z,18.3
2022-11-12T02:13:17.531Z,18.3
2022-11-12T02:18:40.844Z,18.3
2022-11-12T02:24:17.781Z,18.3
2022-11-12T02:29:39.185Z,18.2
2022-11-12T02:35:17.289Z,18.3
2022-11-12T02:40:40.299Z,18.3
2022-11-12T02:46:17.444Z,18.2
2022-11-12T02:51:55.816Z,18.2
2022-11-12T02:57:18.383Z,18.2
2022-11-12T03:02:41.440Z,18.1
2022-11-12T03:08:10.084Z,18.2
2022-11-12T03:13:32.443Z,18.2
2022-11-12T03:19:09.644Z,18.2
2022-11-12T03:24:32.163Z,18.2
2022-11-12T03:30:11.731Z,18.2
2022-11-12T03:35:48.743Z,18.1
2022-11-12T03:41:25.590Z,18.1
2022-11-12T03:46:47.504Z,18.2
2022-11-12T03:51:54.267Z,18.1
2022-11-12T03:57:16.163Z,18.2
2022-11-12T04:02:23.477Z,18.1
2022-11-12T04:07:29.665Z,18.1
2022-11-12T04:12:52.521Z,18.1
2022-11-12T04:18:15.136Z,18.1
2022-11-12T04:23:06.278Z,18.1
2022-11-12T04:28:12.661Z,18.1
2022-11-12T04:33:34.857Z,18.1
2022-11-12T04:38:46.775Z,18.1
2022-11-12T04:44:09.195Z,18.1
2022-11-12T04:49:32.011Z,18.1
2022-11-12T04:54:54.490Z,18.1
2022-11-12T05:00:16.628Z,18.1
2022-11-12T05:05:54.684Z,18.1
2022-11-12T05:11:32.945Z,18.1
2022-11-12T05:17:11.152Z,18.1
2022-11-12T05:23:23.563Z,18.1
2022-11-12T05:29:25.493Z,18.1
2022-11-12T05:35:05.289Z,18
2022-11-12T05:40:43.589Z,18
2022-11-12T05:46:48.363Z,18.1
2022-11-12T05:52:55.051Z,18.1
2022-11-12T05:58:40.771Z,18.1
2022-11-12T06:04:03.567Z,18.1
2022-11-12T06:09:25.785Z,18.1
2022-11-12T06:14:48.762Z,18.1
2022-11-12T06:20:10.785Z,18.1
2022-11-12T06:25:39.764Z,18.1
2022-11-12T06:31:02.637Z,18.1
2022-11-12T06:36:31.038Z,18.1
2022-11-12T06:41:52.909Z,18.1
2022-11-12T06:46:59.458Z,18.1
2022-11-12T06:52:38.375Z,18.2
2022-11-12T06:58:01.100Z,18.1
2022-11-12T07:03:42.732Z,18.2
2022-11-12T07:09:24.402Z,18.2
2022-11-12T07:14:52.328Z,18.3
2022-11-12T07:20:20.199Z,18.3
2022-11-12T07:25:42.357Z,18.2
2022-11-12T07:31:43.149Z,18.2
2022-11-12T07:37:13.532Z,18.3
2022-11-12T07:42:54.532Z,18.3
2022-11-12T07:48:39.829Z,18.3
2022-11-12T07:54:18.226Z,18.2
2022-11-12T08:00:02.489Z,18.3
2022-11-12T08:05:49.521Z,18.3
2022-11-12T08:11:28.921Z,18.3
2022-11-12T08:17:11.287Z,18.2
2022-11-12T08:22:34.379Z,18.2
2022-11-12T08:28:12.212Z,18.3
2022-11-12T08:33:51.437Z,18.3
2022-11-12T08:39:18.112Z,18.2
2022-11-12T08:44:58.082Z,18.3
2022-11-12T08:50:37.455Z,18.2
2022-11-12T08:56:16.130Z,18.2
2022-11-12T09:01:54.856Z,18.2
2022-11-12T09:08:04.981Z,18.2
2022-11-12T09:13:06.107Z,18.2
2022-11-12T09:18:42.006Z,18.2
2022-11-12T09:24:25.652Z,18.2
2022-11-12T09:30:04.674Z,18.1
2022-11-12T09:35:42.859Z,18.1
2022-11-12T09:41:22.636Z,18.1
2022-11-12T09:47:33.887Z,18.1
2022-11-12T09:53:12.256Z,18.1
2022-11-12T09:58:50.014Z,18.1
2022-11-12T10:04:28.723Z,18.1
2022-11-12T10:10:12.471Z,18.1
2022-11-12T10:15:56.987Z,18.1
2022-11-12T10:21:35.564Z,18
2022-11-12T10:27:13.933Z,18
2022-11-12T10:32:52.415Z,18
2022-11-12T10:38:30.327Z,17.9
2022-11-12T10:44:13.638Z,17.9
2022-11-12T10:49:51.906Z,17.9
2022-11-12T10:55:30.730Z,17.9
2022-11-12T11:01:08.386Z,17.9
2022-11-12T11:06:52.625Z,17.9
2022-11-12T11:12:16.395Z,17.9
2022-11-12T11:17:39.657Z,17.9
2022-11-12T11:23:06.592Z,17.9
2022-11-12T11:28:45.169Z,17.9
2022-11-12T11:34:22.808Z,17.9
2022-11-12T11:40:01.312Z,17.9
2022-11-12T11:45:39.904Z,17.8
2022-11-12T11:51:42.502Z,17.8
2022-11-12T11:57:20.948Z,17.8
2022-11-12T12:02:58.963Z,17.8
2022-11-12T12:08:37.709Z,17.8
2022-11-12T12:14:45.005Z,17.8
2022-11-12T12:20:24.442Z,17.8
2022-11-12T12:26:02.642Z,17.8
2022-11-12T12:31:40.523Z,17.8
2022-11-12T12:37:24.112Z,17.8
2022-11-12T12:43:07.873Z,17.9
2022-11-12T12:48:30.930Z,17.8
2022-11-12T12:54:10.076Z,17.9
2022-11-12T12:59:48.606Z,17.9
2022-11-12T13:05:16.372Z,17.9
2022-11-12T13:10:39.953Z,17.9
2022-11-12T13:16:18.917Z,17.9
2022-11-12T13:21:56.923Z,17.9
2022-11-12T13:27:27.405Z,17.9
2022-11-12T13:33:10.605Z,17.9
2022-11-12T13:38:33.912Z,17.9
2022-11-12T13:44:18.123Z,17.9
2022-11-12T13:49:56.155Z,17.9
2022-11-12T13:55:25.222Z,17.9
2022-11-12T14:00:52.268Z,17.9
2022-11-12T14:06:34.941Z,17.9
2022-11-12T14:12:13.324Z,17.9
2022-11-12T14:17:55.523Z,17.9
2022-11-12T14:23:40.673Z,17.9
2022-11-12T14:29:18.924Z,17.9
2022-11-12T14:35:00.097Z,17.9
2022-11-12T14:40:41.541Z,17.9
2022-11-12T14:46:42.205Z,17.9
2022-11-12T14:52:23.558Z,17.9
2022-11-12T14:58:14.152Z,17.9
2022-11-12T15:04:55.942Z,17.9
2022-11-12T15:10:18.735Z,17.9
2022-11-12T15:15:48.526Z,17.9
2022-11-12T15:21:32.546Z,17.9
2022-11-12T15:27:11.537Z,17.9
2022-11-12T15:32:33.757Z,17.9
2022-11-12T15:38:12.768Z,17.9
2022-11-12T15:43:35.803Z,17.9
2022-11-12T15:48:27.289Z,17.9
2022-11-12T15:54:12.170Z,17.9
2022-11-12T15:59:56.705Z,17.9
2022-11-12T16:05:19.494Z,17.8
2022-11-12T16:10:42.233Z,17.9
2022-11-12T16:16:05.665Z,19.6
2022-11-12T16:21:43.726Z,19.3
2022-11-12T16:27:07.222Z,21.4
2022-11-12T16:32:46.127Z,22.9
2022-11-12T16:38:24.021Z,23.9
2022-11-12T16:44:02.532Z,24.6
2022-11-12T16:49:41.091Z,25.1
2022-11-12T16:55:21.526Z,25.4
2022-11-12T17:00:59.970Z,25.1
2022-11-12T17:06:28.647Z,25.3
2022-11-12T17:11:54.869Z,25.6
2022-11-12T17:17:17.970Z,26.1
2022-11-12T17:22:46.851Z,26.4
2022-11-12T17:28:09.119Z,26.3
2022-11-12T17:33:35.936Z,26.4
2022-11-12T17:38:59.590Z,27.3
2022-11-12T17:44:21.660Z,27.7
2022-11-12T17:49:44.215Z,27.5
2022-11-12T17:54:51.263Z,28
2022-11-12T18:00:15.163Z,28.3
2022-11-12T18:05:38.299Z,28.3
2022-11-12T18:11:06.614Z,27.9
2022-11-12T18:16:14.853Z,28
2022-11-12T18:21:38.091Z,27.9
2022-11-12T18:27:00.572Z,28.3
2022-11-12T18:32:23.161Z,28.5
2022-11-12T18:37:46.026Z,28.4
2022-11-12T18:43:08.439Z,28.6
2022-11-12T18:48:19.914Z,28.8
2022-11-12T18:53:30.822Z,29.1
2022-11-12T18:58:53.635Z,28.9
2022-11-12T19:04:17.217Z,28.8
2022-11-12T19:09:30.938Z,28.4
2022-11-12T19:14:43.367Z,28.1
2022-11-12T19:20:16.042Z,28.4
2022-11-12T19:25:53.756Z,28.6
2022-11-12T19:31:16.444Z,29.2
2022-11-12T19:36:23.652Z,29.7
2022-11-12T19:42:07.355Z,29.8
2022-11-12T19:47:29.621Z,29.3
2022-11-12T19:52:39.951Z,29.3
2022-11-12T19:58:08.764Z,29.9
2022-11-12T20:03:47.780Z,30.3
2022-11-12T20:09:10.709Z,30.4
2022-11-12T20:14:48.913Z,30.4
2022-11-12T20:20:34.443Z,30.4
2022-11-12T20:26:13.876Z,30.4
2022-11-12T20:31:52.459Z,29.9
2022-11-12T20:36:58.998Z,29.9
2022-11-12T20:42:06.554Z,29.4
2022-11-12T20:47:14.069Z,29.2
2022-11-12T20:53:06.192Z,29
2022-11-12T20:58:45.437Z,28.8
2022-11-12T21:04:12.559Z,28.4
2022-11-12T21:09:53.650Z,28.1
2022-11-12T21:20:45.986Z,27.6
2022-11-12T21:26:24.816Z,27.4
2022-11-12T21:31:50.499Z,27.2
2022-11-12T21:37:29.138Z,27.1
2022-11-12T21:42:52.624Z,26.9
2022-11-12T21:48:30.892Z,26.8
2022-11-12T21:54:12.127Z,26.7
2022-11-12T21:59:51.510Z,26.6
2022-11-12T22:05:42.204Z,26.4
2022-11-12T22:11:05.496Z,26.3
2022-11-12T22:17:04.857Z,26.1
2022-11-12T22:22:29.640Z,26
2022-11-12T22:27:55.058Z,25.8
2022-11-12T22:33:33.217Z,25.7
2022-11-12T22:39:16.218Z,25.6
2022-11-12T22:44:55.681Z,25.4
2022-11-12T22:50:33.915Z,25.3
2022-11-12T22:56:11.917Z,25.2
2022-11-12T23:01:50.744Z,25
2022-11-12T23:07:30.499Z,24.9
2022-11-12T23:12:41.947Z,24.8
2022-11-12T23:18:19.963Z,24.4
2022-11-12T23:23:32.206Z,23.8
2022-11-12T23:29:10.200Z,23.3
2022-11-12T23:34:47.744Z,22.8
2022-11-12T23:40:30.901Z,23.8
2022-11-12T23:46:08.679Z,24.1
2022-11-12T23:51:47.172Z,24.1
2022-11-12T23:56:54.027Z,23.6
